Time;durP1;ratioP1;P1;durP2;ratioP2;P2;SDS_P1;SDS_P2;PMS_P1;PMS_P2;Temp;Humidity;BMP_temperature;BMP_pressure;BME280_temperature;BME280_humidity;BME280_pressure;Samples;Min_cycle;Max_cycle;Signal;HPM_P1;HPM_P2
2022/12/01 00:00:57;;;;;;;16.65;14.70;;;12.70;88.20;;;;;;5000976;28;20026;-80
2022/12/01 00:03:22;;;;;;;16.90;15.40;;;12.70;88.30;;;;;;4996562;28;20077;-80
2022/12/01 00:06:02;;;;;;;15.98;14.52;;;12.70;88.40;;;;;;5016714;28;20034;-80
2022/12/01 00:08:28;;;;;;;16.20;14.70;;;12.70;88.50;;;;;;5016528;28;20109;-80
2022/12/01 00:10:54;;;;;;;16.15;14.65;;;12.60;88.40;;;;;;5001883;28;20018;-80
2022/12/01 00:13:20;;;;;;;17.05;15.45;;;12.60;88.50;;;;;;5019956;28;20116;-81
2022/12/01 00:15:46;;;;;;;16.77;15.15;;;12.60;88.60;;;;;;5019809;28;20026;-79
2022/12/01 00:18:11;;;;;;;16.40;14.90;;;12.60;88.50;;;;;;5019743;28;20551;-79
2022/12/01 00:20:38;;;;;;;15.85;14.27;;;12.60;88.50;;;;;;5001732;28;20022;-82
2022/12/01 00:23:04;;;;;;;16.30;14.80;;;12.60;88.60;;;;;;5001921;28;20041;-80
2022/12/01 00:25:31;;;;;;;16.00;14.50;;;12.60;88.60;;;;;;5018760;28;20030;-79
2022/12/01 00:27:57;;;;;;;17.40;15.70;;;12.50;88.60;;;;;;5016575;28;20026;-80
2022/12/01 00:30:23;;;;;;;16.10;14.57;;;12.50;88.60;;;;;;4999541;28;20026;-79
2022/12/01 00:32:48;;;;;;;15.90;14.30;;;12.60;88.60;;;;;;5001153;28;20022;-79
2022/12/01 00:35:15;;;;;;;16.05;14.45;;;12.50;88.50;;;;;;4999449;28;20394;-79
2022/12/01 00:37:41;;;;;;;17.33;15.52;;;12.40;88.50;;;;;;4999247;28;20034;-79
2022/12/01 00:40:08;;;;;;;16.77;14.98;;;12.50;88.60;;;;;;4999795;28;20030;-80
2022/12/01 00:42:35;;;;;;;15.80;14.27;;;12.50;88.50;;;;;;5000510;28;20549;-78
2022/12/01 00:45:00;;;;;;;16.00;14.50;;;12.50;88.50;;;;;;4997402;28;20038;-79
2022/12/01 00:47:26;;;;;;;16.00;14.40;;;12.50;88.50;;;;;;5014444;28;20497;-80
2022/12/01 00:49:51;;;;;;;18.90;15.93;;;12.50;88.50;;;;;;5017629;28;20022;-80
2022/12/01 00:52:18;;;;;;;15.98;14.55;;;12.50;88.40;;;;;;4998563;28;20038;-80
2022/12/01 00:54:45;;;;;;;15.55;14.05;;;12.50;88.50;;;;;;4986590;28;20033;-81
2022/12/01 00:57:11;;;;;;;16.63;14.93;;;12.50;88.50;;;;;;5004927;28;20030;-80
2022/12/01 00:59:36;;;;;;;15.98;14.48;;;12.50;88.40;;;;;;5003280;28;20418;-80
2022/12/01 01:02:04;;;;;;;15.48;14.02;;;12.50;88.40;;;;;;4985236;28;20026;-81
2022/12/01 01:04:30;;;;;;;16.40;14.90;;;12.50;88.40;;;;;;4985930;28;20033;-80
2022/12/01 01:06:56;;;;;;;15.90;14.45;;;12.50;88.30;;;;;;5008153;28;20064;-81
2022/12/01 01:09:21;;;;;;;15.43;14.02;;;12.40;88.30;;;;;;5013448;28;20026;-79
2022/12/01 01:11:47;;;;;;;16.80;15.20;;;12.50;88.20;;;;;;5014886;28;20398;-80
2022/12/01 01:14:13;;;;;;;15.63;14.13;;;12.50;88.10;;;;;;5016420;28;20425;-82
2022/12/01 01:16:38;;;;;;;16.70;15.10;;;12.50;88.00;;;;;;5020961;28;20041;-80
2022/12/01 01:19:04;;;;;;;15.13;13.75;;;12.50;87.90;;;;;;5002823;28;20026;-80
2022/12/01 01:21:30;;;;;;;15.90;14.35;;;12.50;87.70;;;;;;5019266;28;20032;-80
2022/12/01 01:23:55;;;;;;;17.35;15.68;;;12.50;87.70;;;;;;5020154;28;20040;-79
2022/12/01 01:26:23;;;;;;;16.70;15.05;;;12.50;87.50;;;;;;5001873;28;20033;-81
2022/12/01 01:28:49;;;;;;;17.70;16.05;;;12.50;87.50;;;;;;5020257;28;20083;-80
2022/12/01 01:31:19;;;;;;;17.20;15.60;;;12.50;87.50;;;;;;5016507;28;20022;-79
2022/12/01 01:33:44;;;;;;;17.35;15.70;;;12.50;87.60;;;;;;5014357;28;20034;-79
2022/12/01 01:36:10;;;;;;;16.00;14.60;;;12.50;87.70;;;;;;4998408;28;20022;-79
2022/12/01 01:38:36;;;;;;;16.95;15.35;;;12.50;87.80;;;;;;4991094;28;20054;-79
2022/12/01 01:41:03;;;;;;;15.60;14.10;;;12.50;87.80;;;;;;4998516;28;20037;-81
2022/12/01 01:43:56;;;;;;;15.93;14.48;;;12.50;88.00;;;;;;5003051;28;20487;-81
2022/12/01 01:46:27;;;;;;;16.50;14.88;;;12.40;87.90;;;;;;5000630;28;20575;-79
2022/12/01 01:49:15;;;;;;;17.30;15.55;;;12.40;88.00;;;;;;5006719;28;20037;-80
2022/12/01 01:51:49;;;;;;;16.00;14.50;;;12.40;88.00;;;;;;5003760;28;20513;-80
2022/12/01 01:54:26;;;;;;;16.77;15.18;;;12.40;88.00;;;;;;5013290;28;20056;-79
2022/12/01 01:56:53;;;;;;;16.13;14.73;;;12.40;88.00;;;;;;5006013;28;20427;-81
2022/12/01 01:59:27;;;;;;;17.35;15.63;;;12.40;88.00;;;;;;4983902;28;20042;-81
2022/12/01 02:02:05;;;;;;;16.88;15.27;;;12.40;88.00;;;;;;4983414;28;20070;-80
2022/12/01 02:04:33;;;;;;;17.45;15.75;;;12.40;88.00;;;;;;4994314;28;20077;-80
2022/12/01 02:06:59;;;;;;;17.08;15.57;;;12.30;87.90;;;;;;4983086;28;20394;-80
2022/12/01 02:09:24;;;;;;;16.70;15.15;;;12.40;88.00;;;;;;5005923;28;20030;-81
2022/12/01 02:12:13;;;;;;;17.90;16.30;;;12.30;88.00;;;;;;4999207;28;20075;-81
2022/12/01 02:14:58;;;;;;;16.98;15.38;;;12.30;88.00;;;;;;4988584;28;20054;-80
2022/12/01 02:17:42;;;;;;;15.90;14.30;;;12.30;88.00;;;;;;4993220;28;20018;-79
2022/12/01 02:20:29;;;;;;;15.75;14.25;;;12.30;88.00;;;;;;5005699;28;20061;-80
2022/12/01 02:23:23;;;;;;;16.75;15.25;;;12.30;87.90;;;;;;5000994;28;20029;-80
2022/12/01 02:26:12;;;;;;;16.40;14.80;;;12.30;87.90;;;;;;4999315;28;20034;-80
2022/12/01 02:28:56;;;;;;;16.48;14.95;;;12.40;88.10;;;;;;4998895;28;20475;-79
2022/12/01 02:32:03;;;;;;;16.13;14.63;;;12.30;88.00;;;;;;4998522;28;20026;-80
2022/12/01 02:34:50;;;;;;;16.23;14.73;;;12.30;87.90;;;;;;4964315;28;20030;-80
2022/12/01 02:37:33;;;;;;;16.92;15.35;;;12.30;88.00;;;;;;5005329;28;20414;-81
2022/12/01 02:40:07;;;;;;;16.27;14.77;;;12.30;88.00;;;;;;5001795;28;20047;-81
2022/12/01 02:43:02;;;;;;;16.52;15.10;;;12.30;87.90;;;;;;5004822;28;20025;-81
2022/12/01 02:45:39;;;;;;;16.85;15.30;;;12.30;87.90;;;;;;4991709;28;20038;-81
2022/12/01 02:48:11;;;;;;;16.38;14.88;;;12.30;88.00;;;;;;5010211;28;20049;-80
2022/12/01 02:50:39;;;;;;;16.27;14.68;;;12.30;87.90;;;;;;4992005;28;20101;-78
2022/12/01 02:53:07;;;;;;;17.85;16.15;;;12.30;87.80;;;;;;4993348;28;20030;-80
2022/12/01 02:55:33;;;;;;;16.55;14.95;;;12.30;87.80;;;;;;4990874;28;20027;-82
2022/12/01 02:57:58;;;;;;;16.33;14.77;;;12.30;87.60;;;;;;4986284;28;20414;-80
2022/12/01 03:00:24;;;;;;;16.30;14.73;;;12.40;87.60;;;;;;5003573;28;20514;-79
2022/12/01 03:03:01;;;;;;;17.25;15.55;;;12.40;87.50;;;;;;4987698;28;20501;-80
2022/12/01 03:05:57;;;;;;;16.52;15.02;;;12.30;87.30;;;;;;4982406;28;20113;-79
2022/12/01 03:08:51;;;;;;;17.25;15.55;;;12.40;87.20;;;;;;4996049;28;20458;-80
2022/12/01 03:11:27;;;;;;;17.10;15.45;;;12.40;87.20;;;;;;4987021;28;20022;-80
2022/12/01 03:14:07;;;;;;;16.83;15.18;;;12.40;87.20;;;;;;4989620;28;20026;-81
2022/12/01 03:16:40;;;;;;;16.65;15.25;;;12.40;87.20;;;;;;5015464;28;20026;-80
2022/12/01 03:19:33;;;;;;;16.75;15.18;;;12.40;87.30;;;;;;4984602;28;20031;-80
2022/12/01 03:22:13;;;;;;;15.80;14.20;;;12.40;87.40;;;;;;4976201;28;20107;-79
2022/12/01 03:24:42;;;;;;;16.23;14.63;;;12.30;87.50;;;;;;4979751;28;20038;-79
2022/12/01 03:27:11;;;;;;;16.17;14.52;;;12.30;87.60;;;;;;4981522;28;20537;-79
2022/12/01 03:29:42;;;;;;;17.00;15.48;;;12.30;87.60;;;;;;4996655;28;20018;-80
2022/12/01 03:32:18;;;;;;;16.33;14.63;;;12.30;87.60;;;;;;5003837;28;20054;-80
2022/12/01 03:35:03;;;;;;;15.98;14.55;;;12.20;87.60;;;;;;5015428;28;20273;-80
2022/12/01 03:37:55;;;;;;;16.33;14.85;;;12.30;87.70;;;;;;5016384;28;20022;-81
2022/12/01 03:40:26;;;;;;;16.52;14.93;;;12.30;87.80;;;;;;5005850;28;20046;-80
2022/12/01 03:42:57;;;;;;;16.17;14.68;;;12.20;87.80;;;;;;5006487;28;20041;-81
2022/12/01 03:45:25;;;;;;;;;;;12.20;87.70;;;;;;5017084;28;20081;-80
2022/12/01 03:47:51;;;;;;;15.65;14.05;;;12.20;87.70;;;;;;5007699;28;20038;-81
2022/12/01 03:50:18;;;;;;;16.75;15.15;;;12.20;87.80;;;;;;4989327;28;20045;-80
2022/12/01 03:53:11;;;;;;;17.13;15.57;;;12.20;87.70;;;;;;5006573;28;20037;-79
2022/12/01 03:55:42;;;;;;;17.05;15.50;;;12.20;87.70;;;;;;4993092;28;20376;-80
2022/12/01 03:58:27;;;;;;;16.85;15.15;;;12.20;87.60;;;;;;4997477;28;20593;-79
2022/12/01 04:00:56;;;;;;;16.85;15.30;;;12.20;87.70;;;;;;4998410;28;20034;-79
2022/12/01 04:03:24;;;;;;;16.30;14.80;;;12.20;87.70;;;;;;4980539;28;20081;-77
2022/12/01 04:05:50;;;;;;;17.30;15.70;;;12.20;87.80;;;;;;5014573;28;20022;-79
2022/12/01 04:08:15;;;;;;;17.17;15.60;;;12.20;87.70;;;;;;4990392;28;20566;-80
2022/12/01 04:10:41;;;;;;;16.67;15.05;;;12.20;87.70;;;;;;5007299;28;20053;-80
2022/12/01 04:13:11;;;;;;;16.70;15.13;;;12.20;87.80;;;;;;5011769;28;20041;-80
2022/12/01 04:15:36;;;;;;;15.60;14.15;;;12.20;87.80;;;;;;4993582;28;20077;-79
2022/12/01 04:18:02;;;;;;;16.45;14.95;;;12.20;87.70;;;;;;5013044;28;20447;-80
2022/12/01 04:20:27;;;;;;;16.38;14.88;;;12.20;87.70;;;;;;5000414;28;20050;-79
2022/12/01 04:22:53;;;;;;;17.30;15.60;;;12.20;87.70;;;;;;4991853;28;20034;-79
2022/12/01 04:25:20;;;;;;;16.95;15.48;;;12.20;87.70;;;;;;4996912;28;20526;-80
2022/12/01 04:27:45;;;;;;;18.17;16.42;;;12.20;87.70;;;;;;5002088;28;20049;-80
2022/12/01 04:30:11;;;;;;;16.38;14.98;;;12.20;87.70;;;;;;5019201;28;20057;-80
2022/12/01 04:32:38;;;;;;;16.80;15.20;;;12.20;87.70;;;;;;5019172;28;20462;-81
2022/12/01 04:35:05;;;;;;;17.98;16.38;;;12.20;87.60;;;;;;4983420;28;20026;-80
2022/12/01 04:37:31;;;;;;;16.90;15.27;;;12.20;87.70;;;;;;4981502;28;20092;-81
2022/12/01 04:39:56;;;;;;;18.02;16.35;;;12.10;87.60;;;;;;4995430;28;20034;-79
2022/12/01 04:42:22;;;;;;;17.63;16.02;;;12.20;87.60;;;;;;4996971;28;20030;-79
2022/12/01 04:44:47;;;;;;;18.33;16.63;;;12.20;87.60;;;;;;4996668;28;20041;-79
2022/12/01 04:47:13;;;;;;;16.92;15.32;;;12.20;87.50;;;;;;4992067;28;20033;-79
2022/12/01 04:49:38;;;;;;;17.90;16.17;;;12.20;87.40;;;;;;4978860;28;20034;-79
2022/12/01 04:52:04;;;;;;;17.85;16.25;;;12.30;87.30;;;;;;4997219;28;20054;-80
2022/12/01 04:54:29;;;;;;;18.20;16.55;;;12.20;87.20;;;;;;4997079;28;20062;-79
2022/12/01 04:56:55;;;;;;;17.50;15.90;;;12.30;87.20;;;;;;4997803;28;20054;-80
2022/12/01 04:59:21;;;;;;;17.33;15.73;;;12.30;87.20;;;;;;4997540;28;20026;-79
2022/12/01 05:01:46;;;;;;;17.88;16.13;;;12.30;87.10;;;;;;5011848;28;20033;-80
2022/12/01 05:04:13;;;;;;;17.60;15.98;;;12.30;87.20;;;;;;5002251;28;20022;-81
2022/12/01 05:06:39;;;;;;;16.92;15.32;;;12.20;87.20;;;;;;5012580;28;20578;-81
2022/12/01 05:09:05;;;;;;;18.15;16.55;;;12.20;87.30;;;;;;5004358;28;20037;-79
2022/12/01 05:11:31;;;;;;;17.30;15.70;;;12.20;87.30;;;;;;4997329;28;20410;-80
2022/12/01 05:13:58;;;;;;;17.40;15.70;;;12.20;87.40;;;;;;4984367;28;20022;-81
2022/12/01 05:16:26;;;;;;;16.70;15.10;;;12.20;87.50;;;;;;5012178;28;20029;-80
2022/12/01 05:21:43;;;;;;;16.55;15.00;;;12.20;87.50;;;;;;5000685;28;20041;-82
2022/12/01 05:24:10;;;;;;;16.88;15.27;;;12.20;87.60;;;;;;4997398;28;20046;-82
2022/12/01 05:26:36;;;;;;;17.17;15.68;;;12.10;87.60;;;;;;4979445;28;20117;-78
2022/12/01 05:29:02;;;;;;;17.67;16.08;;;12.10;88.10;;;;;;4979664;28;20117;-79
2022/12/01 05:31:27;;;;;;;17.08;15.57;;;12.10;87.60;;;;;;5005906;28;20022;-77
2022/12/01 05:33:53;;;;;;;18.70;15.35;;;12.10;87.60;;;;;;4983254;28;20023;-80
2022/12/01 05:36:18;;;;;;;17.27;15.70;;;12.10;87.60;;;;;;4998565;28;20022;-79
2022/12/01 05:38:44;;;;;;;17.70;16.05;;;12.10;87.60;;;;;;4998446;28;20034;-80
2022/12/01 05:41:10;;;;;;;17.38;15.68;;;12.10;87.60;;;;;;4979594;28;20033;-82
2022/12/01 05:43:35;;;;;;;17.67;15.98;;;12.10;87.60;;;;;;4984539;28;20062;-78
2022/12/01 05:46:01;;;;;;;17.02;15.48;;;12.10;87.70;;;;;;5008766;28;20040;-80
2022/12/01 05:48:27;;;;;;;17.40;15.70;;;12.10;87.60;;;;;;5013968;28;20022;-79
2022/12/01 05:50:52;;;;;;;17.98;16.27;;;12.10;87.60;;;;;;5002450;28;20034;-79
2022/12/01 05:53:18;;;;;;;17.85;16.15;;;12.10;87.50;;;;;;4999186;28;20031;-81
2022/12/01 05:55:44;;;;;;;16.58;15.07;;;12.10;87.50;;;;;;4997176;28;20111;-79
2022/12/01 05:58:10;;;;;;;16.92;15.23;;;12.10;87.50;;;;;;4996650;28;20026;-78
2022/12/01 06:00:37;;;;;;;18.15;16.35;;;12.10;87.60;;;;;;5004159;28;20030;-79
2022/12/01 06:03:03;;;;;;;17.80;16.10;;;12.10;87.60;;;;;;4997008;28;20030;-81
2022/12/01 06:05:29;;;;;;;18.13;16.40;;;12.10;87.50;;;;;;4996127;28;20034;-80
2022/12/01 06:07:54;;;;;;;17.23;15.60;;;12.10;87.50;;;;;;4986461;28;20023;-79
2022/12/01 06:10:20;;;;;;;18.30;16.63;;;12.10;87.50;;;;;;4976047;28;20034;-82
2022/12/01 06:12:46;;;;;;;22.10;19.15;;;12.10;87.50;;;;;;4984926;28;20482;-79
2022/12/01 06:15:11;;;;;;;22.98;19.45;;;12.10;87.20;;;;;;4995312;28;20142;-76
2022/12/01 06:17:37;;;;;;;23.63;20.27;;;12.10;86.40;;;;;;4983327;28;20076;-79
2022/12/01 06:20:04;;;;;;;20.85;18.77;;;12.10;86.30;;;;;;4996506;28;20041;-83
2022/12/01 06:22:30;;;;;;;25.38;19.52;;;12.10;86.40;;;;;;5009071;28;20030;-81
2022/12/01 06:24:55;;;;;;;22.13;18.65;;;12.10;86.60;;;;;;4995621;28;20033;-81
2022/12/01 06:27:21;;;;;;;22.17;19.73;;;12.10;86.70;;;;;;4987704;28;20514;-79
2022/12/01 06:29:48;;;;;;;22.25;19.33;;;12.10;86.60;;;;;;4990378;28;20031;-79
2022/12/01 06:32:14;;;;;;;21.20;18.88;;;12.10;86.50;;;;;;5020863;28;20029;-80
2022/12/01 06:34:39;;;;;;;20.60;18.52;;;12.20;86.50;;;;;;5002537;28;20041;-79
2022/12/01 06:37:05;;;;;;;21.33;19.08;;;12.20;86.50;;;;;;5022673;28;20029;-80
2022/12/01 06:39:30;;;;;;;20.60;18.50;;;12.20;86.50;;;;;;5012904;28;20406;-80
2022/12/01 06:41:56;;;;;;;21.75;19.50;;;12.20;86.40;;;;;;4984461;28;20053;-77
2022/12/01 06:44:21;;;;;;;21.60;19.40;;;12.20;86.40;;;;;;5002296;28;20082;-79
2022/12/01 06:46:51;;;;;;;21.45;18.95;;;12.20;86.40;;;;;;4982952;28;20096;-79
2022/12/01 06:49:17;;;;;;;22.05;19.75;;;12.20;86.50;;;;;;4984478;28;20521;-78
2022/12/01 06:51:43;;;;;;;20.80;18.60;;;12.20;86.60;;;;;;5001011;28;20025;-80
2022/12/01 06:54:10;;;;;;;21.75;19.55;;;12.10;86.60;;;;;;4983872;28;20022;-79
2022/12/01 06:56:36;;;;;;;21.52;19.23;;;12.10;86.70;;;;;;4998329;28;20067;-79
2022/12/01 06:59:01;;;;;;;20.77;18.52;;;12.10;86.70;;;;;;5020647;28;20458;-81
2022/12/01 07:01:27;;;;;;;21.40;19.20;;;12.10;86.80;;;;;;5001314;28;20033;-80
2022/12/01 07:03:53;;;;;;;21.42;19.20;;;12.10;86.80;;;;;;4986935;28;20026;-79
2022/12/01 07:06:19;;;;;;;22.60;20.30;;;12.10;86.80;;;;;;4980204;28;20034;-79
2022/12/01 07:08:45;;;;;;;22.33;20.02;;;12.10;86.90;;;;;;4980205;28;20056;-77
2022/12/01 07:11:12;;;;;;;21.63;19.45;;;12.10;86.90;;;;;;4980809;28;20030;-77
2022/12/01 07:13:38;;;;;;;23.48;21.05;;;12.10;86.90;;;;;;4995424;28;20019;-76
2022/12/01 07:16:05;;;;;;;23.50;21.10;;;12.10;86.90;;;;;;4977522;28;20081;-77
2022/12/01 07:18:32;;;;;;;21.95;19.65;;;12.10;86.90;;;;;;4988694;28;20124;-77
2022/12/01 07:20:59;;;;;;;23.33;20.70;;;12.00;86.90;;;;;;5016751;28;20040;-78
2022/12/01 07:23:25;;;;;;;23.15;20.73;;;12.10;86.90;;;;;;4998918;28;20026;-78
2022/12/01 07:26:14;;;;;;;23.35;20.77;;;12.00;86.90;;;;;;5002489;28;20026;-79
2022/12/01 07:28:40;;;;;;;24.23;21.00;;;12.10;86.90;;;;;;5002468;28;20033;-79
2022/12/01 07:31:14;;;;;;;22.90;20.58;;;12.00;86.90;;;;;;4992055;28;20022;-80
2022/12/01 07:33:40;;;;;;;23.27;20.77;;;12.00;86.80;;;;;;4981232;28;20023;-81
2022/12/01 07:36:07;;;;;;;22.23;19.98;;;12.10;86.80;;;;;;4981386;28;20414;-82
2022/12/01 07:38:34;;;;;;;23.10;20.35;;;12.00;86.80;;;;;;4997616;28;20029;-79
2022/12/01 07:41:13;;;;;;;24.17;21.67;;;12.00;86.80;;;;;;4979530;28;20379;-80
2022/12/01 07:43:39;;;;;;;23.58;21.17;;;12.00;86.70;;;;;;4979878;28;20027;-78
2022/12/01 07:46:07;;;;;;;24.67;22.10;;;12.00;86.70;;;;;;4976947;28;20037;-79
2022/12/01 07:48:34;;;;;;;22.95;20.55;;;12.00;86.70;;;;;;5001576;28;20106;-79
2022/12/01 07:51:00;;;;;;;23.85;21.35;;;12.00;86.70;;;;;;4995280;28;20548;-79
2022/12/01 07:53:25;;;;;;;23.98;21.48;;;12.00;86.70;;;;;;4998950;28;20026;-79
2022/12/01 07:55:51;;;;;;;23.58;21.23;;;12.00;86.60;;;;;;5003827;28;20023;-81
2022/12/01 07:58:16;;;;;;;23.63;21.13;;;12.00;86.70;;;;;;5003894;28;20049;-79
2022/12/01 08:00:42;;;;;;;24.92;22.42;;;12.00;86.70;;;;;;4977920;28;20030;-80
2022/12/01 08:03:07;;;;;;;23.92;21.42;;;12.00;86.60;;;;;;4978403;28;20029;-78
2022/12/01 08:05:34;;;;;;;24.00;21.60;;;12.00;86.60;;;;;;4995801;28;20483;-78
2022/12/01 08:08:00;;;;;;;24.20;21.77;;;12.00;86.50;;;;;;4978736;28;20025;-78
2022/12/01 08:10:25;;;;;;;24.67;22.08;;;12.00;86.50;;;;;;4977172;28;20034;-79
2022/12/01 08:12:51;;;;;;;25.25;22.63;;;12.00;86.50;;;;;;4976499;28;20038;-79
2022/12/01 08:15:16;;;;;;;24.52;21.65;;;12.00;86.60;;;;;;4979821;28;20063;-78
2022/12/01 08:17:42;;;;;;;23.38;20.88;;;12.00;86.60;;;;;;4996112;28;20034;-80
2022/12/01 08:20:08;;;;;;;23.60;21.25;;;12.00;86.60;;;;;;5003138;28;20372;-79
2022/12/01 08:22:33;;;;;;;23.90;21.48;;;12.00;86.50;;;;;;4997606;28;20035;-78
2022/12/01 08:24:59;;;;;;;24.05;21.63;;;12.00;86.50;;;;;;4997267;28;20494;-78
2022/12/01 08:27:24;;;;;;;24.55;22.05;;;12.10;86.50;;;;;;4995655;28;20037;-79
2022/12/01 08:29:50;;;;;;;23.85;21.35;;;12.10;86.40;;;;;;4976682;28;20022;-80
2022/12/01 08:32:16;;;;;;;23.85;21.45;;;12.10;86.30;;;;;;4977359;28;20014;-80
2022/12/01 08:34:42;;;;;;;23.35;20.98;;;12.10;86.30;;;;;;4996727;28;20121;-79
2022/12/01 08:37:07;;;;;;;26.48;23.77;;;12.10;86.20;;;;;;4998908;28;20054;-82
2022/12/01 08:39:33;;;;;;;22.70;20.40;;;12.10;86.20;;;;;;4979491;28;20018;-79
2022/12/01 08:41:59;;;;;;;23.60;21.10;;;12.10;86.30;;;;;;4984571;28;20406;-79
2022/12/01 08:44:24;;;;;;;24.20;21.67;;;12.10;86.40;;;;;;4997321;28;20026;-80
2022/12/01 08:46:50;;;;;;;24.33;21.80;;;12.10;86.40;;;;;;4999392;28;20034;-79
2022/12/01 08:49:15;;;;;;;24.05;21.55;;;12.00;86.50;;;;;;4983000;28;20022;-79
2022/12/01 08:51:41;;;;;;;24.95;22.33;;;12.00;86.50;;;;;;4983320;28;20037;-80
2022/12/01 08:54:06;;;;;;;24.67;22.17;;;12.00;86.50;;;;;;5001322;28;20087;-80
2022/12/01 08:56:35;;;;;;;25.15;22.65;;;12.00;86.50;;;;;;4983603;28;20027;-81
2022/12/01 08:59:01;;;;;;;24.42;21.90;;;12.00;86.60;;;;;;4981677;28;20034;-79
2022/12/01 09:01:27;;;;;;;24.90;22.40;;;12.00;86.60;;;;;;4995300;28;20062;-77
2022/12/01 09:04:14;;;;;;;24.27;21.67;;;12.00;86.60;;;;;;4977230;28;20031;-78
2022/12/01 09:06:42;;;;;;;26.38;21.70;;;12.00;86.60;;;;;;4994521;28;20034;-78
2022/12/01 09:09:16;;;;;;;26.42;22.75;;;12.00;86.50;;;;;;4976155;28;20076;-79
2022/12/01 09:11:43;;;;;;;26.35;23.52;;;12.00;86.50;;;;;;4978273;28;20033;-79
2022/12/01 09:14:09;;;;;;;26.63;23.35;;;12.00;86.40;;;;;;4998299;28;20475;-77
2022/12/01 09:16:35;;;;;;;25.13;22.38;;;12.00;86.30;;;;;;4973794;28;20035;-79
2022/12/01 09:19:01;;;;;;;28.23;24.13;;;12.00;86.30;;;;;;4990935;28;20041;-78
2022/12/01 09:21:31;;;;;;;27.35;23.33;;;12.00;86.30;;;;;;4972774;28;20033;-78
2022/12/01 09:23:57;;;;;;;26.75;23.75;;;12.00;86.30;;;;;;4978846;28;20071;-78
2022/12/01 09:26:24;;;;;;;31.02;25.00;;;12.00;86.30;;;;;;4997708;28;20030;-79
2022/12/01 09:28:52;;;;;;;27.15;24.33;;;12.00;86.30;;;;;;4986285;28;20030;-80
2022/12/01 09:31:19;;;;;;;27.45;24.52;;;12.00;86.30;;;;;;4991562;28;20549;-78
2022/12/01 09:33:45;;;;;;;30.02;23.90;;;12.00;86.20;;;;;;4990159;28;20019;-78
2022/12/01 09:36:11;;;;;;;27.83;24.17;;;12.00;86.30;;;;;;4974470;28;20096;-78
2022/12/01 09:38:38;;;;;;;26.17;23.42;;;12.00;86.30;;;;;;4991688;28;20494;-79
2022/12/01 09:41:29;;;;;;;27.17;24.25;;;12.00;86.30;;;;;;4992305;28;20027;-79
2022/12/01 09:44:01;;;;;;;28.17;24.00;;;12.00;86.30;;;;;;4948929;28;20494;-79
2022/12/01 09:46:35;;;;;;;28.25;23.52;;;12.00;86.30;;;;;;4994082;28;20101;-78
2022/12/01 09:49:02;;;;;;;27.15;23.77;;;12.00;86.30;;;;;;4976529;28;20039;-79
2022/12/01 09:51:29;;;;;;;26.30;23.48;;;12.00;86.30;;;;;;4993625;28;20019;-77
2022/12/01 09:53:58;;;;;;;27.73;24.83;;;12.00;86.20;;;;;;4993553;28;20498;-78
2022/12/01 09:56:29;;;;;;;28.63;24.92;;;12.00;86.20;;;;;;4992940;28;20498;-79
2022/12/01 09:59:06;;;;;;;26.90;24.02;;;12.00;86.20;;;;;;4993114;28;20084;-75
2022/12/01 10:01:37;;;;;;;27.67;24.52;;;12.00;86.20;;;;;;4975023;28;20430;-78
2022/12/01 10:04:15;;;;;;;26.73;23.75;;;12.00;86.20;;;;;;4975126;28;20090;-79
2022/12/01 10:07:04;;;;;;;27.27;24.38;;;12.00;86.20;;;;;;4976260;28;20491;-78
2022/12/01 10:09:48;;;;;;;27.85;23.98;;;12.00;86.20;;;;;;4996773;28;20023;-76
2022/12/01 10:12:16;;;;;;;29.05;25.08;;;12.00;86.20;;;;;;4997073;28;20022;-78
2022/12/01 10:14:47;;;;;;;27.50;24.50;;;12.00;86.20;;;;;;4996706;28;20084;-78
2022/12/01 10:17:30;;;;;;;27.58;24.67;;;12.00;86.30;;;;;;4996297;28;20023;-78
2022/12/01 10:20:10;;;;;;;25.38;22.80;;;12.00;86.20;;;;;;4996267;28;20030;-77
2022/12/01 10:22:47;;;;;;;26.08;23.27;;;12.00;86.10;;;;;;4995997;28;20030;-78
2022/12/01 10:25:33;;;;;;;27.05;24.30;;;12.10;86.10;;;;;;4996486;28;20066;-79
2022/12/01 10:28:12;;;;;;;26.40;23.60;;;12.10;86.00;;;;;;4979633;28;20084;-79
2022/12/01 10:30:50;;;;;;;28.50;24.52;;;12.10;86.00;;;;;;4996221;28;20065;-79
2022/12/01 10:33:32;;;;;;;27.38;23.75;;;12.10;86.00;;;;;;4996951;28;20117;-78
2022/12/01 10:35:58;;;;;;;27.70;24.58;;;12.10;85.90;;;;;;4978258;28;20057;-78
2022/12/01 10:38:34;;;;;;;27.40;24.50;;;12.00;85.90;;;;;;4996649;28;20026;-78
2022/12/01 10:41:01;;;;;;;27.60;24.50;;;12.00;86.50;;;;;;4978907;28;20483;-78
2022/12/01 10:43:38;;;;;;;28.90;25.80;;;12.00;86.00;;;;;;4979404;28;20113;-78
2022/12/01 10:46:24;;;;;;;27.65;24.65;;;12.00;86.10;;;;;;4978350;28;20510;-78
2022/12/01 10:48:58;;;;;;;26.45;23.65;;;12.00;86.10;;;;;;4996339;28;20031;-79
2022/12/01 10:51:26;;;;;;;27.63;24.63;;;12.00;86.00;;;;;;4996528;28;20018;-78
2022/12/01 10:54:05;;;;;;;28.23;25.23;;;12.00;86.10;;;;;;4996585;28;20033;-79
2022/12/01 10:56:31;;;;;;;26.65;23.80;;;12.00;86.10;;;;;;4996328;28;20391;-77
2022/12/01 10:59:03;;;;;;;27.45;24.45;;;12.00;86.20;;;;;;4979051;28;20026;-78
2022/12/01 11:01:34;;;;;;;27.88;24.88;;;12.00;86.20;;;;;;4978503;28;20041;-79
2022/12/01 11:04:06;;;;;;;26.88;23.65;;;12.00;86.20;;;;;;4996689;28;20042;-78
2022/12/01 11:06:34;;;;;;;27.85;24.90;;;12.00;86.20;;;;;;4978300;28;20056;-78
2022/12/01 11:09:06;;;;;;;27.08;23.95;;;12.00;86.10;;;;;;4995826;28;20506;-79
2022/12/01 11:11:39;;;;;;;26.98;24.17;;;12.00;86.10;;;;;;4977841;28;20022;-79
2022/12/01 11:14:19;;;;;;;27.42;24.60;;;12.00;86.10;;;;;;4978764;28;20034;-78
2022/12/01 11:16:46;;;;;;;27.50;24.60;;;12.00;86.00;;;;;;4978324;28;20018;-79
2022/12/01 11:19:33;;;;;;;26.90;24.10;;;12.00;86.10;;;;;;4977608;28;20442;-79
2022/12/01 11:22:01;;;;;;;27.50;24.52;;;12.00;86.10;;;;;;4977881;28;20023;-78
2022/12/01 11:24:41;;;;;;;26.98;24.15;;;12.00;86.10;;;;;;4977799;28;20041;-77
2022/12/01 11:27:15;;;;;;;27.98;25.00;;;12.00;86.10;;;;;;4978239;28;20022;-79
2022/12/01 11:29:41;;;;;;;28.30;25.20;;;12.00;86.10;;;;;;4979196;28;20038;-79
2022/12/01 11:32:28;;;;;;;28.13;25.23;;;12.00;86.20;;;;;;4996721;28;20019;-79
2022/12/01 11:34:55;;;;;;;27.75;24.85;;;12.00;86.00;;;;;;4996180;28;20162;-78
2022/12/01 11:37:24;;;;;;;27.30;24.23;;;12.00;86.10;;;;;;4994088;28;20526;-75
2022/12/01 11:39:51;;;;;;;27.90;24.98;;;12.00;86.40;;;;;;4989995;28;20175;-76
2022/12/01 11:42:28;;;;;;;28.98;25.85;;;12.00;86.20;;;;;;5013661;28;20026;-78
2022/12/01 11:45:02;;;;;;;27.52;24.63;;;12.00;86.10;;;;;;4999492;28;20169;-75
2022/12/01 11:47:28;;;;;;;26.25;23.45;;;12.00;86.20;;;;;;4976942;28;20399;-75
2022/12/01 11:49:56;;;;;;;28.13;25.02;;;12.10;86.20;;;;;;4976793;28;20245;-79
2022/12/01 11:52:31;;;;;;;26.65;23.85;;;12.00;86.10;;;;;;4977215;28;20033;-79
2022/12/01 11:54:59;;;;;;;26.92;24.00;;;12.00;86.20;;;;;;4976709;28;20029;-78
2022/12/01 11:57:27;;;;;;;27.50;24.73;;;12.00;86.10;;;;;;4977816;28;20037;-78
2022/12/01 11:59:53;;;;;;;27.58;24.67;;;12.00;86.20;;;;;;4997036;28;20040;-77
2022/12/01 12:02:38;;;;;;;26.95;24.23;;;12.00;85.90;;;;;;4987567;28;20487;-77
2022/12/01 12:05:41;;;;;;;26.55;23.75;;;12.00;86.00;;;;;;4999026;28;20038;-78
2022/12/01 12:08:13;;;;;;;26.33;23.63;;;12.00;86.00;;;;;;5017050;28;20109;-77
2022/12/01 12:11:00;;;;;;;26.15;23.38;;;12.10;85.90;;;;;;5018442;28;20056;-80
2022/12/01 12:13:41;;;;;;;26.17;23.38;;;12.10;85.80;;;;;;5003716;28;20037;-82
2022/12/01 12:16:18;;;;;;;26.75;24.05;;;12.10;85.80;;;;;;5003779;28;20049;-82
2022/12/01 12:18:46;;;;;;;27.10;24.25;;;12.10;85.70;;;;;;5008656;28;20021;-80
2022/12/01 12:21:44;;;;;;;27.10;24.40;;;12.10;85.60;;;;;;4985086;28;20030;-81
2022/12/01 12:24:22;;;;;;;25.98;23.25;;;12.10;85.60;;;;;;4979701;28;20022;-76
2022/12/01 12:27:22;;;;;;;26.92;24.13;;;12.10;85.70;;;;;;4990143;28;20033;-78
2022/12/01 12:30:00;;;;;;;25.42;22.73;;;12.10;85.80;;;;;;5008391;28;20023;-78
2022/12/01 12:32:51;;;;;;;26.52;23.83;;;12.10;85.80;;;;;;4994870;28;20073;-77
2022/12/01 12:35:22;;;;;;;;;;;12.10;85.90;;;;;;4997049;28;20026;-78
2022/12/01 12:38:09;;;;;;;24.88;21.90;;;12.10;85.90;;;;;;4981220;28;19905;-79
2022/12/01 12:40:49;;;;;;;25.88;23.17;;;12.10;85.90;;;;;;4976085;28;20026;-78
2022/12/01 12:43:35;;;;;;;25.65;22.90;;;12.10;85.90;;;;;;4979641;28;20029;-78
2022/12/01 12:46:07;;;;;;;26.42;23.58;;;12.00;85.90;;;;;;4998975;28;20058;-79
2022/12/01 12:48:55;;;;;;;26.85;24.02;;;12.00;85.90;;;;;;5000982;28;20030;-79